Station LMFS1 - Lake Murray SC Image indicating link to RSS feed of recent meteorological observations for station LMFS1


Conditions at LMFS1 as of
(6:20 pm EDT)
2220 GMT on 09/01/2026:
     

Click on the graph icon in the table below to see a time series plot of the last five days of that observation.

5-day plot - Wind Direction Wind Direction (WDIR):SSW ( 200 deg true )
5-day plot - Wind Speed Wind Speed (WSPD): 2 kts
5-day plot - Wind Gust Wind Gust (GST): 2 kts
5-day plot - Air Temperature Air Temperature (ATMP): 95.2 °F
5-day plot - Wind Speed at 10 Meters Wind Speed at 10 meters (WSPD10M): 2 kts
5-day plot - Wind Speed at 20 Meters Wind Speed at 20 meters (WSPD20M): 2 kts
5-day plot -  Wind Speed, Wind Gust and Atmospheric Pressure Combined plot of Wind Speed, Gust, and Air Pressure
Previous observations
TIME
(EDT)
5-day plot - Wind Direction
WDIR
 
5-day plot - Wind Speed
WSPD
kts
5-day plot - Wind Gust
GST
kts
5-day plot - Wave Height
WVHT
ft
5-day plot - Dominant Wave Period
DPD
sec
5-day plot - Average Wave Period
APD
sec
5-day plot - Mean Wave Direction
MWD
 
5-day plot - Atmospheric Pressure
PRES
in
5-day plot - Pressure Tendency
PTDY
in
5-day plot - Air Temperature
ATMP
°F
5-day plot - Water Temperature
WTMP
°F
5-day plot - Dew Point
DEWP
°F
5-day plot - Salinity
SAL
psu
5-day plot - Visibility
VIS
nmi
5-day plot - Tide (above MLLW)
TIDE
ft
2026-09-01 06:10 pm- 0 3------ 96.6-----
2026-09-01 06:00 pm S 2 4------ 93.0-----
2026-09-01 05:50 pmSSW 3 6------ 93.0-----
2026-09-01 05:40 pm SW 5 8------ 92.5-----
2026-09-01 05:30 pmSSW 6 7------ 91.6-----
2026-09-01 05:20 pmSSW 4 5------ 91.9-----
2026-09-01 05:10 pm S 4 4------ 92.1-----
2026-09-01 05:00 pmSSW 4 5------ 91.8-----
2026-09-01 04:50 pmSSW 3 4------ 92.5-----
2026-09-01 04:40 pm SW 4 6------ 92.5-----
2026-09-01 04:30 pmSSW 4 6------ 92.1-----
2026-09-01 04:20 pm SW 3 6------ 92.8-----
2026-09-01 04:10 pmSSW 5 6------ 91.9-----
2026-09-01 04:00 pm SW 5 7------ 92.7-----
2026-09-01 03:50 pmSSW 4 5------ 92.5-----
2026-09-01 03:40 pm SW 3 5------ 92.3-----
2026-09-01 03:30 pmSSW 4 5------ 91.6-----
2026-09-01 03:20 pmSSW 3 5------ 91.6-----
2026-09-01 03:10 pmSSW-------- 91.4-----
2026-09-01 03:00 pm S 4 8------ 90.9-----
2026-09-01 02:50 pmSSW 7 8------ 90.0-----
2026-09-01 02:40 pm S 5 7------ 90.1-----
2026-09-01 02:30 pm S 6 7------ 89.8-----
2026-09-01 02:20 pm S 6 7------ 89.4-----
2026-09-01 02:10 pmSSW 5 7------ 89.2-----
2026-09-01 02:00 pm S 6 7------ 89.1-----
2026-09-01 01:50 pm S 5 6------ 89.8-----
2026-09-01 01:40 pm S 4 8------ 88.3-----
2026-09-01 01:30 pmSSW 6 7------ 88.3-----
2026-09-01 01:20 pm S 5 6------ 88.2-----
2026-09-01 01:10 pm S 5 6------ 88.3-----
2026-09-01 01:00 pm S 5 7------ 87.1-----
2026-09-01 12:50 pmSSW 6 7------ 86.7-----
2026-09-01 12:40 pm S 6 7------ 86.4-----
2026-09-01 12:30 pm S 6 7------ 86.2-----
2026-09-01 12:20 pm S 6 8------ 85.8-----
2026-09-01 12:10 pm S 7 8------ 85.6-----
2026-09-01 12:00 pmSSW 7 8------ 85.5-----
2026-09-01 11:50 am S 5 8------ 85.5-----
2026-09-01 11:40 am S 5 7------ 86.4-----
2026-09-01 11:30 amWSW 4 6------ 87.6-----
2026-09-01 11:20 am W 3 6------ 88.0-----
2026-09-01 11:10 amWNW 3 5------ 88.2-----
2026-09-01 11:00 amWNW 5 7------ 86.9-----
2026-09-01 10:50 am W 3 6------ 86.5-----
2026-09-01 10:40 amWNW 3 6------ 86.0-----
2026-09-01 10:30 amWNW 4 7------ 85.8-----
2026-09-01 10:20 amWNW 3 7------ 84.9-----
2026-09-01 10:10 am NW 3 6------ 85.3-----
2026-09-01 10:00 amWNW 3 6------ 84.2-----
2026-09-01 09:50 am NW 3 6------ 84.4-----
2026-09-01 09:40 amWNW 3 5------ 83.7-----
2026-09-01 09:30 amWNW 4 6------ 82.9-----
2026-09-01 09:20 am W 5 6------ 82.0-----
2026-09-01 09:10 am W 4 7------ 81.5-----
2026-09-01 09:00 am W 4 6------ 81.0-----
2026-09-01 08:50 am W 4 6------ 80.4-----
2026-09-01 08:40 am W 4 6------ 80.2-----
2026-09-01 08:30 am W 4 7------ 79.9-----
2026-09-01 08:20 am W 4 6------ 79.7-----
2026-09-01 08:10 amWSW 4 7------ 79.5-----
2026-09-01 08:00 amWSW 3 4------ 79.3-----
2026-09-01 07:50 am W 4 5------ 78.8-----
2026-09-01 07:40 am W 1 3------ 78.6-----
2026-09-01 07:30 am- 0 3------ 78.4-----
2026-09-01 07:20 am NW 1 4------ 78.3-----
2026-09-01 07:10 am W 4 5------ 78.4-----
2026-09-01 07:00 am- 0------- 77.4-----
2026-09-01 06:50 am- 0------- 77.2-----
2026-09-01 06:40 am- 0 2------ 77.4-----
2026-09-01 06:30 am- 0 2------ 77.2-----
2026-09-01 06:20 am NW 1 2------ 77.2-----
2026-09-01 06:10 am- 0 1------ 77.5-----
2026-09-01 06:00 am- 0 2------ 78.1-----
2026-09-01 05:50 am- 0 2------------
2026-09-01 05:40 amWNW 2 5------ 79.2-----
2026-09-01 05:30 amWSW 4 5------ 79.3-----
2026-09-01 05:20 amWSW 4 6------ 79.3-----
2026-09-01 05:10 am W-------- 79.5-----
2026-09-01 05:00 amWSW 4 7------ 79.5-----
2026-09-01 04:50 am W 5 7------ 79.7-----
2026-09-01 04:40 am W 5 7------ 79.7-----
2026-09-01 04:30 am W 5 7------ 79.9-----
2026-09-01 04:20 am W 5 7------ 79.9-----
2026-09-01 04:10 amWSW 2 5------ 80.1-----
2026-09-01 04:00 amWSW 3 6------ 80.1-----
2026-09-01 03:50 amWSW 4 5------ 80.2-----
2026-09-01 03:40 amWSW 4 5------ 80.4-----
2026-09-01 03:30 amWSW 4 6------ 80.6-----
2026-09-01 03:20 amWNW 3 4------ 80.6-----
2026-09-01 03:10 am W 3 7------ 81.0-----
2026-09-01 03:00 amWSW 6 9------ 81.1-----
2026-09-01 02:50 am SW 8 9------ 81.3-----
2026-09-01 02:40 am SW 6 11------ 81.5-----
2026-09-01 02:30 amSSW 7 10------ 81.5-----
2026-09-01 02:20 am SW 6 9------ 81.7-----
2026-09-01 02:10 amSSW 8 10------ 81.7-----
2026-09-01 02:00 amSSW 7 11------ 81.9-----
2026-09-01 01:50 amSSW 8 11------ 82.2-----
2026-09-01 01:40 am SW 8 11------ 82.4-----
2026-09-01 01:30 amSSW 10 13------ 82.6-----
2026-09-01 01:20 amSSW-------- 82.8-----
2026-09-01 01:10 am S 10 12------------
2026-09-01 01:00 am S 10 13------ 83.5-----
2026-09-01 12:50 am S 9 12------ 83.8-----
2026-09-01 12:40 am S 9 10------ 83.8-----
2026-09-01 12:30 am S 9 10------ 84.2-----
2026-09-01 12:20 am S 8 10------ 84.7-----
2026-09-01 12:10 am S 9 11------ 84.7-----
2026-09-01 12:00 amSSE 9 11------ 84.9-----
2026-08-31 11:50 pmSSE 7 8------ 84.9-----
2026-08-31 11:40 pm SE 4 6------ 83.7-----
2026-08-31 11:30 pm E 3 4------ 83.8-----
2026-08-31 11:20 pmENE 2 5------ 84.2-----
2026-08-31 11:10 pm E 5 6------ 84.7-----
2026-08-31 11:00 pmESE 4 10------ 84.2-----
2026-08-31 10:50 pm E 1 3------ 82.4-----
2026-08-31 10:40 pm- 0 1------ 82.2-----
2026-08-31 10:30 pm- 0 0------ 82.4-----
2026-08-31 10:20 pm- 0 0------ 82.8-----
2026-08-31 10:10 pm- 0 0------ 82.9-----
2026-08-31 10:00 pm- 0 0------ 83.5-----
2026-08-31 09:50 pm- 0 0------ 83.5-----
2026-08-31 09:40 pm- 0 0------ 83.7-----
2026-08-31 09:30 pm- 0 1------ 84.2-----
2026-08-31 09:20 pm- 0 1------ 84.6-----
2026-08-31 09:10 pm- 0 0------ 84.7-----
2026-08-31 09:00 pm- 0 2------ 85.1-----
2026-08-31 08:50 pm N 1------- 85.3-----
2026-08-31 08:40 pm- 0 1------ 86.2-----
2026-08-31 08:30 pm- 0 1------ 86.7-----
2026-08-31 08:20 pm- 0 1------ 87.3-----
2026-08-31 08:10 pm- 0 1------ 87.3-----
2026-08-31 08:00 pm- 0 1------ 87.6-----
2026-08-31 07:50 pm- 0 1------ 88.2-----
2026-08-31 07:40 pm- 0 1------ 88.5-----